sensor_id;sensor_type;location;lat;lon;timestamp;pressure;altitude;pressure_sealevel;temperature;humidity
7337;BME280;54510;42.016;23.098;2023-04-03T00:00:50;-21397.63;;;9.56;66.85
7337;BME280;54510;42.016;23.098;2023-04-03T00:03:16;-21402.22;;;9.73;66.45
7337;BME280;54510;42.016;23.098;2023-04-03T00:05:41;-21404.44;;;9.81;65.87
7337;BME280;54510;42.016;23.098;2023-04-03T00:08:07;-21401.13;;;9.69;66.13
7337;BME280;54510;42.016;23.098;2023-04-03T00:10:34;-21399.31;;;9.62;66.81
7337;BME280;54510;42.016;23.098;2023-04-03T00:12:59;-21398.19;;;9.58;66.90
7337;BME280;54510;42.016;23.098;2023-04-03T00:15:25;-21395.69;;;9.49;67.53
7337;BME280;54510;42.016;23.098;2023-04-03T00:17:50;-21397.91;;;9.57;67.41
7337;BME280;54510;42.016;23.098;2023-04-03T00:20:15;-21398.59;;;9.60;67.49
7337;BME280;54510;42.016;23.098;2023-04-03T00:22:41;-21392.34;;;9.37;67.66
7337;BME280;54510;42.016;23.098;2023-04-03T00:25:06;-21388.59;;;9.23;68.38
7337;BME280;54510;42.016;23.098;2023-04-03T00:27:31;-21387.63;;;9.20;68.69
7337;BME280;54510;42.016;23.098;2023-04-03T00:29:57;-21393.59;;;9.41;67.99
7337;BME280;54510;42.016;23.098;2023-04-03T00:32:22;-21393.31;;;9.40;68.32
7337;BME280;54510;42.016;23.098;2023-04-03T00:34:47;-21390.81;;;9.31;68.53
7337;BME280;54510;42.016;23.098;2023-04-03T00:37:12;-21389.56;;;9.27;68.78
7337;BME280;54510;42.016;23.098;2023-04-03T00:39:38;-21391.78;;;9.35;68.40
7337;BME280;54510;42.016;23.098;2023-04-03T00:42:04;-21390.69;;;9.31;68.69
7337;BME280;54510;42.016;23.098;2023-04-03T00:46:57;-21382.19;;;9.00;68.63
7337;BME280;54510;42.016;23.098;2023-04-03T00:49:23;-21379.00;;;8.88;68.30
7337;BME280;54510;42.016;23.098;2023-04-03T00:51:48;-21371.50;;;8.61;68.42
7337;BME280;54510;42.016;23.098;2023-04-03T00:54:13;-21370.53;;;8.57;68.46
7337;BME280;54510;42.016;23.098;2023-04-03T00:56:39;-21369.69;;;8.54;68.65
7337;BME280;54510;42.016;23.098;2023-04-03T00:59:06;-21372.47;;;8.64;68.09
7337;BME280;54510;42.016;23.098;2023-04-03T01:01:33;-21371.06;;;8.59;68.19
7337;BME280;54510;42.016;23.098;2023-04-03T01:03:59;-21371.06;;;8.59;68.44
7337;BME280;54510;42.016;23.098;2023-04-03T01:06:28;-21365.66;;;8.40;69.21
7337;BME280;54510;42.016;23.098;2023-04-03T01:08:56;-21374.56;;;8.72;68.59
7337;BME280;54510;42.016;23.098;2023-04-03T01:11:21;-21382.06;;;8.99;67.58
7337;BME280;54510;42.016;23.098;2023-04-03T01:13:47;-21380.41;;;8.93;67.01
7337;BME280;54510;42.016;23.098;2023-04-03T01:16:12;-21379.84;;;8.91;66.86
7337;BME280;54510;42.016;23.098;2023-04-03T01:18:39;-21382.34;;;9.00;66.86
7337;BME280;54510;42.016;23.098;2023-04-03T01:26:01;-21381.38;;;8.97;67.09
7337;BME280;54510;42.016;23.098;2023-04-03T01:28:28;-21382.91;;;9.02;67.19
7337;BME280;54510;42.016;23.098;2023-04-03T01:31:00;-21381.22;;;8.96;67.39
7337;BME280;54510;42.016;23.098;2023-04-03T01:33:27;-21379.13;;;8.89;67.80
7337;BME280;54510;42.016;23.098;2023-04-03T01:35:52;-21376.22;;;8.78;68.19
7337;BME280;54510;42.016;23.098;2023-04-03T01:38:18;-21370.66;;;8.58;68.99
7337;BME280;54510;42.016;23.098;2023-04-03T01:40:43;-21372.75;;;8.65;69.19
7337;BME280;54510;42.016;23.098;2023-04-03T01:43:08;-21372.75;;;8.65;69.75
7337;BME280;54510;42.016;23.098;2023-04-03T01:45:34;-21365.66;;;8.40;70.23
7337;BME280;54510;42.016;23.098;2023-04-03T01:47:59;-21367.03;;;8.45;70.66
7337;BME280;54510;42.016;23.098;2023-04-03T01:50:24;-21369.00;;;8.52;70.10
7337;BME280;54510;42.016;23.098;2023-04-03T01:52:50;-21369.81;;;8.55;69.92
7337;BME280;54510;42.016;23.098;2023-04-03T01:55:15;-21369.00;;;8.52;70.64
7337;BME280;54510;42.016;23.098;2023-04-03T01:57:40;-21363.41;;;8.31;70.68
7337;BME280;54510;42.016;23.098;2023-04-03T02:00:06;-21363.41;;;8.31;70.85
7337;BME280;54510;42.016;23.098;2023-04-03T02:02:32;-21367.44;;;8.46;71.33
7337;BME280;54510;42.016;23.098;2023-04-03T02:04:58;-21368.44;;;8.50;70.83
7337;BME280;54510;42.016;23.098;2023-04-03T02:07:23;-21362.72;;;8.29;71.68
7337;BME280;54510;42.016;23.098;2023-04-03T02:09:48;-21362.31;;;8.27;71.87
7337;BME280;54510;42.016;23.098;2023-04-03T02:12:13;-21363.84;;;8.33;71.71
7337;BME280;54510;42.016;23.098;2023-04-03T02:14:39;-21363.41;;;8.31;71.86
7337;BME280;54510;42.016;23.098;2023-04-03T02:17:04;-21361.88;;;8.26;71.80
7337;BME280;54510;42.016;23.098;2023-04-03T02:19:33;-21365.09;;;8.38;71.14
7337;BME280;54510;42.016;23.098;2023-04-03T02:21:58;-21357.00;;;8.08;70.88
7337;BME280;54510;42.016;23.098;2023-04-03T02:24:24;-21355.47;;;8.03;70.56
7337;BME280;54510;42.016;23.098;2023-04-03T02:26:49;-21364.53;;;8.36;69.56
7337;BME280;54510;42.016;23.098;2023-04-03T02:29:14;-21364.13;;;8.34;69.45
7337;BME280;54510;42.016;23.098;2023-04-03T02:31:39;-21371.50;;;8.61;68.56
7337;BME280;54510;42.016;23.098;2023-04-03T02:34:05;-21363.69;;;8.32;69.42
7337;BME280;54510;42.016;23.098;2023-04-03T02:36:30;-21364.53;;;8.36;69.36
7337;BME280;54510;42.016;23.098;2023-04-03T02:38:56;-21366.75;;;8.44;68.78
7337;BME280;54510;42.016;23.098;2023-04-03T02:41:21;-21367.88;;;8.48;68.01
7337;BME280;54510;42.016;23.098;2023-04-03T02:43:46;-21362.44;;;8.28;68.39
7337;BME280;54510;42.016;23.098;2023-04-03T02:46:11;-21363.00;;;8.30;68.39
7337;BME280;54510;42.016;23.098;2023-04-03T02:48:39;-21364.25;;;8.35;68.23
7337;BME280;54510;42.016;23.098;2023-04-03T02:51:05;-21358.97;;;8.15;69.21
7337;BME280;54510;42.016;23.098;2023-04-03T02:53:30;-21363.00;;;8.30;68.67
7337;BME280;54510;42.016;23.098;2023-04-03T02:55:56;-21360.22;;;8.20;68.93
7337;BME280;54510;42.016;23.098;2023-04-03T02:58:21;-21363.16;;;8.30;69.23
7337;BME280;54510;42.016;23.098;2023-04-03T03:00:46;-21366.34;;;8.42;68.89
7337;BME280;54510;42.016;23.098;2023-04-03T03:03:12;-21363.28;;;8.31;68.74
7337;BME280;54510;42.016;23.098;2023-04-03T03:05:39;-21358.13;;;8.12;69.35
7337;BME280;54510;42.016;23.098;2023-04-03T03:08:04;-21358.13;;;8.12;69.93
7337;BME280;54510;42.016;23.098;2023-04-03T03:10:29;-21353.09;;;7.94;69.82
7337;BME280;54510;42.016;23.098;2023-04-03T03:12:55;-21350.06;;;7.83;69.77
7337;BME280;54510;42.016;23.098;2023-04-03T03:15:20;-21351.59;;;7.88;70.26
7337;BME280;54510;42.016;23.098;2023-04-03T03:17:46;-21355.75;;;8.04;69.88
7337;BME280;54510;42.016;23.098;2023-04-03T03:20:11;-21354.50;;;7.99;70.03
7337;BME280;54510;42.016;23.098;2023-04-03T03:22:39;-21353.09;;;7.94;70.23
7337;BME280;54510;42.016;23.098;2023-04-03T03:25:04;-21349.22;;;7.80;70.51
7337;BME280;54510;42.016;23.098;2023-04-03T03:27:30;-21350.06;;;7.83;71.10
7337;BME280;54510;42.016;23.098;2023-04-03T03:29:55;-21350.31;;;7.84;71.24
7337;BME280;54510;42.016;23.098;2023-04-03T03:32:20;-21351.16;;;7.87;70.61
7337;BME280;54510;42.016;23.098;2023-04-03T03:34:45;-21353.38;;;7.95;71.19
7337;BME280;54510;42.016;23.098;2023-04-03T03:37:11;-21349.50;;;7.81;71.57
7337;BME280;54510;42.016;23.098;2023-04-03T03:39:36;-21345.44;;;7.66;71.62
7337;BME280;54510;42.016;23.098;2023-04-03T03:42:01;-21345.72;;;7.67;71.98
7337;BME280;54510;42.016;23.098;2023-04-03T03:44:27;-21354.63;;;8.00;71.16
7337;BME280;54510;42.016;23.098;2023-04-03T03:46:54;-21357.72;;;8.11;70.77
7337;BME280;54510;42.016;23.098;2023-04-03T03:49:19;-21357.56;;;8.10;70.91
7337;BME280;54510;42.016;23.098;2023-04-03T03:51:45;-21362.03;;;8.26;70.63
7337;BME280;54510;42.016;23.098;2023-04-03T03:54:10;-21360.50;;;8.21;70.32
7337;BME280;54510;42.016;23.098;2023-04-03T03:56:36;-21359.78;;;8.18;70.43
7337;BME280;54510;42.016;23.098;2023-04-03T03:59:01;-21359.53;;;8.17;70.47
7337;BME280;54510;42.016;23.098;2023-04-03T04:01:26;-21360.63;;;8.21;70.56
7337;BME280;54510;42.016;23.098;2023-04-03T04:03:51;-21357.28;;;8.09;70.43
7337;BME280;54510;42.016;23.098;2023-04-03T04:06:19;-21358.53;;;8.14;70.92
7337;BME280;54510;42.016;23.098;2023-04-03T04:08:44;-21356.59;;;8.07;71.28
7337;BME280;54510;42.016;23.098;2023-04-03T04:11:09;-21357.16;;;8.09;71.18
7337;BME280;54510;42.016;23.098;2023-04-03T04:13:35;-21352.97;;;7.93;71.67
7337;BME280;54510;42.016;23.098;2023-04-03T04:16:00;-21351.31;;;7.87;72.06
7337;BME280;54510;42.016;23.098;2023-04-03T04:18:25;-21353.94;;;7.97;71.78
7337;BME280;54510;42.016;23.098;2023-04-03T04:20:51;-21352.84;;;7.93;72.16
7337;BME280;54510;42.016;23.098;2023-04-03T04:23:17;-21349.22;;;7.80;72.97
7337;BME280;54510;42.016;23.098;2023-04-03T04:25:44;-21343.78;;;7.60;73.35
7337;BME280;54510;42.016;23.098;2023-04-03T04:28:09;-21346.44;;;7.70;73.39
7337;BME280;54510;42.016;23.098;2023-04-03T04:30:35;-21351.44;;;7.88;72.87
7337;BME280;54510;42.016;23.098;2023-04-03T04:33:00;-21352.84;;;7.93;72.20
7337;BME280;54510;42.016;23.098;2023-04-03T04:35:26;-21358.53;;;8.14;71.43
7337;BME280;54510;42.016;23.098;2023-04-03T04:37:51;-21362.56;;;8.28;70.69
7337;BME280;54510;42.016;23.098;2023-04-03T04:40:16;-21365.38;;;8.39;69.48
7337;BME280;54510;42.016;23.098;2023-04-03T04:42:42;-21363.69;;;8.32;70.00
7337;BME280;54510;42.016;23.098;2023-04-03T04:45:07;-21368.28;;;8.49;69.41
7337;BME280;54510;42.016;23.098;2023-04-03T04:47:33;-21370.66;;;8.58;69.22
7337;BME280;54510;42.016;23.098;2023-04-03T04:49:58;-21366.19;;;8.42;69.31
7337;BME280;54510;42.016;23.098;2023-04-03T04:52:23;-21363.16;;;8.30;69.54
7337;BME280;54510;42.016;23.098;2023-04-03T04:54:49;-21359.25;;;8.16;70.47
7337;BME280;54510;42.016;23.098;2023-04-03T04:57:14;-21365.66;;;8.40;69.12
7337;BME280;54510;42.016;23.098;2023-04-03T04:59:40;-21362.44;;;8.28;69.21
7337;BME280;54510;42.016;23.098;2023-04-03T05:02:05;-21366.19;;;8.42;68.81
7337;BME280;54510;42.016;23.098;2023-04-03T05:04:31;-21370.94;;;8.59;68.71
7337;BME280;54510;42.016;23.098;2023-04-03T05:06:56;-21371.34;;;8.60;68.39
7337;BME280;54510;42.016;23.098;2023-04-03T05:09:21;-21372.88;;;8.66;68.70
7337;BME280;54510;42.016;23.098;2023-04-03T05:11:47;-21371.78;;;8.62;68.90
7337;BME280;54510;42.016;23.098;2023-04-03T05:14:12;-21366.19;;;8.42;69.45
7337;BME280;54510;42.016;23.098;2023-04-03T05:16:37;-21381.22;;;8.96;68.35
7337;BME280;54510;42.016;23.098;2023-04-03T05:19:03;-21386.09;;;9.14;66.55
7337;BME280;54510;42.016;23.098;2023-04-03T05:21:28;-21387.75;;;9.20;66.14
7337;BME280;54510;42.016;23.098;2023-04-03T05:23:57;-21394.72;;;9.45;65.20
7337;BME280;54510;42.016;23.098;2023-04-03T05:26:22;-21393.59;;;9.41;65.00
7337;BME280;54510;42.016;23.098;2023-04-03T05:28:48;-21396.38;;;9.51;64.58
7337;BME280;54510;42.016;23.098;2023-04-03T05:31:13;-21399.84;;;9.64;64.55
7337;BME280;54510;42.016;23.098;2023-04-03T05:33:38;-21397.22;;;9.55;65.93
7337;BME280;54510;42.016;23.098;2023-04-03T05:36:04;-21389.84;;;9.28;66.26
7337;BME280;54510;42.016;23.098;2023-04-03T05:38:29;-21392.22;;;9.36;66.36
7337;BME280;54510;42.016;23.098;2023-04-03T05:40:55;-21392.50;;;9.37;66.15
7337;BME280;54510;42.016;23.098;2023-04-03T05:43:20;-21388.88;;;9.24;66.12
7337;BME280;54510;42.016;23.098;2023-04-03T05:45:46;-21394.28;;;9.44;66.01
7337;BME280;54510;42.016;23.098;2023-04-03T05:48:12;-21399.44;;;9.63;65.41
7337;BME280;54510;42.016;23.098;2023-04-03T05:50:37;-21400.13;;;9.65;64.62
7337;BME280;54510;42.016;23.098;2023-04-03T05:53:06;-21396.66;;;9.52;64.60
7337;BME280;54510;42.016;23.098;2023-04-03T05:55:32;-21395.13;;;9.47;65.66
7337;BME280;54510;42.016;23.098;2023-04-03T05:57:57;-21399.44;;;9.63;65.35
7337;BME280;54510;42.016;23.098;2023-04-03T06:00:22;-21395.81;;;9.49;65.27
7337;BME280;54510;42.016;23.098;2023-04-03T06:02:48;-21398.06;;;9.58;65.72
7337;BME280;54510;42.016;23.098;2023-04-03T06:05:13;-21397.63;;;9.56;64.55
7337;BME280;54510;42.016;23.098;2023-04-03T06:07:39;-21399.03;;;9.61;64.43
7337;BME280;54510;42.016;23.098;2023-04-03T06:10:05;-21400.56;;;9.67;64.33
7337;BME280;54510;42.016;23.098;2023-04-03T06:12:30;-21402.34;;;9.73;64.06
7337;BME280;54510;42.016;23.098;2023-04-03T06:14:56;-21404.72;;;9.82;63.54
7337;BME280;54510;42.016;23.098;2023-04-03T06:17:22;-21407.63;;;9.93;63.63
7337;BME280;54510;42.016;23.098;2023-04-03T06:19:48;-21410.00;;;10.01;63.45
7337;BME280;54510;42.016;23.098;2023-04-03T06:22:13;-21408.47;;;9.96;63.56
7337;BME280;54510;42.016;23.098;2023-04-03T06:24:39;-21409.03;;;9.98;63.76
7337;BME280;54510;42.016;23.098;2023-04-03T06:27:05;-21409.44;;;9.99;63.68
7337;BME280;54510;42.016;23.098;2023-04-03T06:29:30;-21414.31;;;10.17;63.09
7337;BME280;54510;42.016;23.098;2023-04-03T06:31:55;-21418.75;;;10.33;63.29
7337;BME280;54510;42.016;23.098;2023-04-03T06:34:21;-21414.88;;;10.19;62.85
7337;BME280;54510;42.016;23.098;2023-04-03T06:36:46;-21410.28;;;10.02;64.11
7337;BME280;54510;42.016;23.098;2023-04-03T06:39:16;-21419.72;;;10.37;63.45
7337;BME280;54510;42.016;23.098;2023-04-03T06:41:42;-21423.34;;;10.50;62.69
7337;BME280;54510;42.016;23.098;2023-04-03T06:44:08;-21424.88;;;10.55;62.90
7337;BME280;54510;42.016;23.098;2023-04-03T06:46:36;-21433.75;;;10.88;62.33
7337;BME280;54510;42.016;23.098;2023-04-03T06:49:02;-21430.84;;;10.77;62.37
7337;BME280;54510;42.016;23.098;2023-04-03T06:51:28;-21432.09;;;10.82;62.39
7337;BME280;54510;42.016;23.098;2023-04-03T06:53:54;-21427.22;;;10.64;62.99
7337;BME280;54510;42.016;23.098;2023-04-03T06:56:20;-21434.44;;;10.90;62.36
7337;BME280;54510;42.016;23.098;2023-04-03T06:58:45;-21437.34;;;11.01;61.56
7337;BME280;54510;42.016;23.098;2023-04-03T07:01:11;-21447.91;;;11.39;61.42
7337;BME280;54510;42.016;23.098;2023-04-03T07:03:37;-21455.09;;;11.66;59.65
7337;BME280;54510;42.016;23.098;2023-04-03T07:06:04;-21456.63;;;11.71;59.65
7337;BME280;54510;42.016;23.098;2023-04-03T07:08:29;-21460.66;;;11.86;59.44
7337;BME280;54510;42.016;23.098;2023-04-03T07:10:55;-21462.03;;;11.91;59.17
7337;BME280;54510;42.016;23.098;2023-04-03T07:13:21;-21458.31;;;11.77;59.34
7337;BME280;54510;42.016;23.098;2023-04-03T07:15:46;-21457.47;;;11.74;59.43
7337;BME280;54510;42.016;23.098;2023-04-03T07:18:11;-21463.72;;;11.97;58.34
7337;BME280;54510;42.016;23.098;2023-04-03T07:20:38;-21469.09;;;12.17;57.40
7337;BME280;54510;42.016;23.098;2023-04-03T07:23:03;-21473.81;;;12.34;57.17
7337;BME280;54510;42.016;23.098;2023-04-03T07:25:28;-21476.59;;;12.44;56.55
7337;BME280;54510;42.016;23.098;2023-04-03T07:27:54;-21481.03;;;12.60;56.27
7337;BME280;54510;42.016;23.098;2023-04-03T07:30:19;-21487.94;;;12.86;54.90
7337;BME280;54510;42.016;23.098;2023-04-03T07:32:45;-21492.09;;;13.01;54.64
7337;BME280;54510;42.016;23.098;2023-04-03T07:35:11;-21493.34;;;13.05;54.79
7337;BME280;54510;42.016;23.098;2023-04-03T07:37:36;-21491.81;;;13.00;54.52
7337;BME280;54510;42.016;23.098;2023-04-03T07:40:01;-21497.91;;;13.22;55.24
7337;BME280;54510;42.016;23.098;2023-04-03T07:42:28;-21502.47;;;13.39;53.95
7337;BME280;54510;42.016;23.098;2023-04-03T07:44:53;-21497.78;;;13.22;53.27
7337;BME280;54510;42.016;23.098;2023-04-03T07:47:19;-21493.34;;;13.05;53.62
7337;BME280;54510;42.016;23.098;2023-04-03T07:49:46;-21491.81;;;13.00;53.80
7337;BME280;54510;42.016;23.098;2023-04-03T07:52:12;-21498.19;;;13.23;53.26
7337;BME280;54510;42.016;23.098;2023-04-03T07:54:39;-21500.69;;;13.32;53.97
7337;BME280;54510;42.016;23.098;2023-04-03T07:57:05;-21494.03;;;13.08;52.66
7337;BME280;54510;42.016;23.098;2023-04-03T07:59:30;-21495.00;;;13.12;53.02
7337;BME280;54510;42.016;23.098;2023-04-03T08:01:55;-21497.78;;;13.22;52.59
7337;BME280;54510;42.016;23.098;2023-04-03T08:04:21;-21495.00;;;13.12;52.67
7337;BME280;54510;42.016;23.098;2023-04-03T08:06:46;-21498.47;;;13.24;52.15
7337;BME280;54510;42.016;23.098;2023-04-03T08:09:12;-21504.00;;;13.44;51.72
7337;BME280;54510;42.016;23.098;2023-04-03T08:11:38;-21498.47;;;13.24;52.44
7337;BME280;54510;42.016;23.098;2023-04-03T08:14:04;-21500.53;;;13.32;51.85
7337;BME280;54510;42.016;23.098;2023-04-03T08:16:29;-21506.78;;;13.55;51.76
7337;BME280;54510;42.016;23.098;2023-04-03T08:18:54;-21512.72;;;13.76;51.44
7337;BME280;54510;42.016;23.098;2023-04-03T08:21:20;-21519.91;;;14.03;51.44
7337;BME280;54510;42.016;23.098;2023-04-03T08:23:47;-21525.97;;;14.25;50.42
7337;BME280;54510;42.016;23.098;2023-04-03T08:26:13;-21522.66;;;14.13;50.64
7337;BME280;54510;42.016;23.098;2023-04-03T08:28:39;-21519.06;;;14.00;51.08
7337;BME280;54510;42.016;23.098;2023-04-03T08:31:06;-21522.25;;;14.11;50.71
7337;BME280;54510;42.016;23.098;2023-04-03T08:33:32;-21524.31;;;14.19;50.68
7337;BME280;54510;42.016;23.098;2023-04-03T08:35:57;-21522.53;;;14.12;50.78
7337;BME280;54510;42.016;23.098;2023-04-03T08:38:23;-21523.78;;;14.17;50.96
7337;BME280;54510;42.016;23.098;2023-04-03T08:40:58;-21512.84;;;13.77;51.63
7337;BME280;54510;42.016;23.098;2023-04-03T08:45:53;-21517.41;;;13.94;51.69
7337;BME280;54510;42.016;23.098;2023-04-03T08:48:24;-21532.91;;;14.50;50.84
7337;BME280;54510;42.016;23.098;2023-04-03T08:50:53;-21541.31;;;14.81;50.04
7337;BME280;54510;42.016;23.098;2023-04-03T08:53:30;-21543.81;;;14.90;49.79
7337;BME280;54510;42.016;23.098;2023-04-03T08:55:57;-21537.59;;;14.68;50.11
7337;BME280;54510;42.016;23.098;2023-04-03T08:58:24;-21537.44;;;14.67;50.09
7337;BME280;54510;42.016;23.098;2023-04-03T09:00:54;-21539.81;;;14.76;49.97
7337;BME280;54510;42.016;23.098;2023-04-03T09:03:21;-21538.16;;;14.70;50.22
7337;BME280;54510;42.016;23.098;2023-04-03T09:08:33;-21529.59;;;14.38;51.24
7337;BME280;54510;42.016;23.098;2023-04-03T09:21:36;-21524.75;;;14.20;52.41
7337;BME280;54510;42.016;23.098;2023-04-03T09:24:03;-21529.84;;;14.39;52.00
7337;BME280;54510;42.016;23.098;2023-04-03T09:29:02;-21527.66;;;14.31;52.78
7337;BME280;54510;42.016;23.098;2023-04-03T09:31:35;-21536.22;;;14.62;52.27
7337;BME280;54510;42.016;23.098;2023-04-03T09:34:15;-21530.00;;;14.40;52.55
7337;BME280;54510;42.016;23.098;2023-04-03T09:39:10;-21528.47;;;14.34;53.42
7337;BME280;54510;42.016;23.098;2023-04-03T09:41:35;-21532.63;;;14.49;53.39
7337;BME280;54510;42.016;23.098;2023-04-03T09:44:01;-21535.94;;;14.61;53.83
7337;BME280;54510;42.016;23.098;2023-04-03T09:46:32;-21537.31;;;14.67;53.52
7337;BME280;54510;42.016;23.098;2023-04-03T09:48:59;-21538.69;;;14.72;53.69
7337;BME280;54510;42.016;23.098;2023-04-03T09:51:26;-21537.31;;;14.67;54.13
7337;BME280;54510;42.016;23.098;2023-04-03T09:53:52;-21535.78;;;14.61;54.46
7337;BME280;54510;42.016;23.098;2023-04-03T10:01:26;-21532.34;;;14.48;55.56
7337;BME280;54510;42.016;23.098;2023-04-03T10:04:11;-21533.44;;;14.52;55.09
7337;BME280;54510;42.016;23.098;2023-04-03T10:06:58;-21533.72;;;14.53;55.33
7337;BME280;54510;42.016;23.098;2023-04-03T10:09:23;-21535.94;;;14.61;55.76
7337;BME280;54510;42.016;23.098;2023-04-03T10:14:26;-21531.38;;;14.45;55.80
7337;BME280;54510;42.016;23.098;2023-04-03T10:17:02;-21529.31;;;14.37;57.05
7337;BME280;54510;42.016;23.098;2023-04-03T10:19:39;-21537.31;;;14.67;57.28
7337;BME280;54510;42.016;23.098;2023-04-03T10:22:12;-21538.28;;;14.70;56.82
7337;BME280;54510;42.016;23.098;2023-04-03T10:27:21;-21535.94;;;14.61;57.76
7337;BME280;54510;42.016;23.098;2023-04-03T10:32:47;-21524.88;;;14.21;60.41
7337;BME280;54510;42.016;23.098;2023-04-03T10:38:10;-21522.94;;;14.14;60.45
7337;BME280;54510;42.016;23.098;2023-04-03T10:43:06;-21548.50;;;15.08;58.53
7337;BME280;54510;42.016;23.098;2023-04-03T10:48:14;-21551.25;;;15.18;58.77
7337;BME280;54510;42.016;23.098;2023-04-03T10:53:31;-21540.63;;;14.79;60.91
7337;BME280;54510;42.016;23.098;2023-04-03T10:56:10;-21544.22;;;14.92;60.86
7337;BME280;54510;42.016;23.098;2023-04-03T10:58:39;-21539.66;;;14.75;62.24
7337;BME280;54510;42.016;23.098;2023-04-03T11:01:07;-21546.84;;;15.01;62.27
7337;BME280;54510;42.016;23.098;2023-04-03T11:03:38;-21537.19;;;14.66;63.32
7337;BME280;54510;42.016;23.098;2023-04-03T11:06:07;-21547.94;;;15.06;62.57
7337;BME280;54510;42.016;23.098;2023-04-03T11:08:44;-21550.97;;;15.17;61.93
7337;BME280;54510;42.016;23.098;2023-04-03T11:11:13;-21553.06;;;15.24;61.30
7337;BME280;54510;42.016;23.098;2023-04-03T11:16:06;-21559.28;;;15.47;61.68
7337;BME280;54510;42.016;23.098;2023-04-03T11:18:40;-21555.69;;;15.34;62.07
7337;BME280;54510;42.016;23.098;2023-04-03T11:21:11;-21556.09;;;15.35;62.55
7337;BME280;54510;42.016;23.098;2023-04-03T11:23:39;-21553.47;;;15.26;62.75
7337;BME280;54510;42.016;23.098;2023-04-03T11:26:15;-21548.09;;;15.06;63.82
7337;BME280;54510;42.016;23.098;2023-04-03T11:28:41;-21538.28;;;14.70;64.27
7337;BME280;54510;42.016;23.098;2023-04-03T11:31:25;-21536.22;;;14.62;63.10
7337;BME280;54510;42.016;23.098;2023-04-03T11:36:24;-21538.28;;;14.70;63.67
7337;BME280;54510;42.016;23.098;2023-04-03T11:38:52;-21537.03;;;14.66;62.96
7337;BME280;54510;42.016;23.098;2023-04-03T11:41:23;-21545.59;;;14.97;61.96
7337;BME280;54510;42.016;23.098;2023-04-03T11:43:57;-21546.28;;;14.99;62.94
7337;BME280;54510;42.016;23.098;2023-04-03T11:46:23;-21549.47;;;15.11;62.91
7337;BME280;54510;42.016;23.098;2023-04-03T11:49:36;-21546.16;;;14.99;64.66
7337;BME280;54510;42.016;23.098;2023-04-03T11:51:53;-21551.41;;;15.18;63.92
7337;BME280;54510;42.016;23.098;2023-04-03T11:59:46;-21548.63;;;15.08;65.67
7337;BME280;54510;42.016;23.098;2023-04-03T12:05:26;-21548.91;;;15.09;64.72
7337;BME280;54510;42.016;23.098;2023-04-03T12:08:15;-21552.38;;;15.22;62.85
7337;BME280;54510;42.016;23.098;2023-04-03T12:10:37;-21545.59;;;14.97;61.53
7337;BME280;54510;42.016;23.098;2023-04-03T12:13:12;-21543.94;;;14.91;62.26
7337;BME280;54510;42.016;23.098;2023-04-03T12:20:56;-21532.06;;;14.47;64.32
7337;BME280;54510;42.016;23.098;2023-04-03T12:23:26;-21534.56;;;14.56;65.27
7337;BME280;54510;42.016;23.098;2023-04-03T12:25:52;-21534.00;;;14.54;65.40
7337;BME280;54510;42.016;23.098;2023-04-03T12:28:24;-21534.28;;;14.55;65.65
7337;BME280;54510;42.016;23.098;2023-04-03T12:30:49;-21530.28;;;14.41;65.73
7337;BME280;54510;42.016;23.098;2023-04-03T12:35:57;-21531.78;;;14.46;67.59
7337;BME280;54510;42.016;23.098;2023-04-03T12:41:02;-21538.41;;;14.71;67.79
7337;BME280;54510;42.016;23.098;2023-04-03T12:43:44;-21537.72;;;14.68;69.36
7337;BME280;54510;42.016;23.098;2023-04-03T12:46:16;-21540.34;;;14.78;68.90
7337;BME280;54510;42.016;23.098;2023-04-03T12:48:47;-21539.94;;;14.76;67.51
7337;BME280;54510;42.016;23.098;2023-04-03T12:51:22;-21539.94;;;14.76;66.47
7337;BME280;54510;42.016;23.098;2023-04-03T12:53:51;-21533.88;;;14.54;68.52
7337;BME280;54510;42.016;23.098;2023-04-03T12:56:25;-21536.06;;;14.62;70.11
7337;BME280;54510;42.016;23.098;2023-04-03T12:58:52;-21531.09;;;14.44;70.25
7337;BME280;54510;42.016;23.098;2023-04-03T13:01:24;-21530.53;;;14.42;71.70
7337;BME280;54510;42.016;23.098;2023-04-03T13:03:53;-21532.47;;;14.49;71.28
7337;BME280;54510;42.016;23.098;2023-04-03T13:08:54;-21538.16;;;14.70;70.33
7337;BME280;54510;42.016;23.098;2023-04-03T13:11:22;-21538.97;;;14.73;69.34
7337;BME280;54510;42.016;23.098;2023-04-03T13:13:54;-21535.94;;;14.61;68.28
7337;BME280;54510;42.016;23.098;2023-04-03T13:16:20;-21534.28;;;14.55;68.17
7337;BME280;54510;42.016;23.098;2023-04-03T13:18:49;-21534.56;;;14.56;67.24
7337;BME280;54510;42.016;23.098;2023-04-03T13:21:16;-21534.13;;;14.55;67.34
7337;BME280;54510;42.016;23.098;2023-04-03T13:23:45;-21535.66;;;14.60;68.36
7337;BME280;54510;42.016;23.098;2023-04-03T13:26:11;-21534.28;;;14.55;68.06
7337;BME280;54510;42.016;23.098;2023-04-03T13:28:38;-21534.69;;;14.57;67.49
7337;BME280;54510;42.016;23.098;2023-04-03T13:31:14;-21535.25;;;14.59;67.64
7337;BME280;54510;42.016;23.098;2023-04-03T13:33:50;-21531.78;;;14.46;68.07
7337;BME280;54510;42.016;23.098;2023-04-03T13:36:20;-21533.44;;;14.52;69.68
7337;BME280;54510;42.016;23.098;2023-04-03T13:38:57;-21532.75;;;14.50;69.26
7337;BME280;54510;42.016;23.098;2023-04-03T13:41:29;-21527.91;;;14.32;69.20
7337;BME280;54510;42.016;23.098;2023-04-03T13:43:55;-21525.72;;;14.24;69.59
7337;BME280;54510;42.016;23.098;2023-04-03T13:46:25;-21526.53;;;14.27;71.17
7337;BME280;54510;42.016;23.098;2023-04-03T13:48:52;-21523.22;;;14.15;70.92
7337;BME280;54510;42.016;23.098;2023-04-03T13:51:19;-21517.13;;;13.93;73.86
7337;BME280;54510;42.016;23.098;2023-04-03T13:53:50;-21504.13;;;13.45;76.85
7337;BME280;54510;42.016;23.098;2023-04-03T13:58:52;-21510.50;;;13.68;76.66
7337;BME280;54510;42.016;23.098;2023-04-03T14:01:19;-21519.34;;;14.01;75.95
7337;BME280;54510;42.016;23.098;2023-04-03T14:03:50;-21523.22;;;14.15;74.80
7337;BME280;54510;42.016;23.098;2023-04-03T14:06:16;-21514.78;;;13.84;75.99
7337;BME280;54510;42.016;23.098;2023-04-03T14:08:42;-21514.66;;;13.83;76.60
7337;BME280;54510;42.016;23.098;2023-04-03T14:11:09;-21511.59;;;13.72;75.74
7337;BME280;54510;42.016;23.098;2023-04-03T14:13:37;-21509.13;;;13.63;77.54
7337;BME280;54510;42.016;23.098;2023-04-03T14:16:02;-21512.31;;;13.75;77.03